sensor_id;sensor_type;location;lat;lon;timestamp;pressure;altitude;pressure_sealevel;temperature;humidity
71764;BME280;59602;52.142;5.408;2023-10-31T00:00:24;99728.56;;;10.57;100.00
71764;BME280;59602;52.142;5.408;2023-10-31T00:02:50;99727.03;;;10.56;100.00
71764;BME280;59602;52.142;5.408;2023-10-31T00:05:17;99732.47;;;10.56;100.00
71764;BME280;59602;52.142;5.408;2023-10-31T00:07:47;99729.75;;;10.56;100.00
71764;BME280;59602;52.142;5.408;2023-10-31T00:10:14;99737.91;;;10.56;100.00
71764;BME280;59602;52.142;5.408;2023-10-31T00:12:41;99733.22;;;10.57;100.00
71764;BME280;59602;52.142;5.408;2023-10-31T00:15:07;99727.78;;;10.57;100.00
71764;BME280;59602;52.142;5.408;2023-10-31T00:17:34;99733.22;;;10.57;100.00
71764;BME280;59602;52.142;5.408;2023-10-31T00:20:01;99738.28;;;10.55;100.00
71764;BME280;59602;52.142;5.408;2023-10-31T00:22:27;99735.59;;;10.51;100.00
71764;BME280;59602;52.142;5.408;2023-10-31T00:24:54;99741.88;;;10.48;100.00
71764;BME280;59602;52.142;5.408;2023-10-31T00:27:21;99734.91;;;10.47;100.00
71764;BME280;59602;52.142;5.408;2023-10-31T00:29:47;99749.25;;;10.48;100.00
71764;BME280;59602;52.142;5.408;2023-10-31T00:32:14;99750.03;;;10.45;100.00
71764;BME280;59602;52.142;5.408;2023-10-31T00:34:41;99746.53;;;10.48;100.00
71764;BME280;59602;52.142;5.408;2023-10-31T00:37:07;99743.00;;;10.51;100.00
71764;BME280;59602;52.142;5.408;2023-10-31T00:39:34;99739.50;;;10.50;100.00
71764;BME280;59602;52.142;5.408;2023-10-31T00:42:01;99738.75;;;10.50;100.00
71764;BME280;59602;52.142;5.408;2023-10-31T00:44:27;99739.50;;;10.50;100.00
71764;BME280;59602;52.142;5.408;2023-10-31T00:46:54;99743.75;;;10.51;100.00
71764;BME280;59602;52.142;5.408;2023-10-31T00:49:21;99742.63;;;10.49;100.00
71764;BME280;59602;52.142;5.408;2023-10-31T00:51:47;99744.22;;;10.46;100.00
71764;BME280;59602;52.142;5.408;2023-10-31T00:54:14;99753.13;;;10.47;100.00
71764;BME280;59602;52.142;5.408;2023-10-31T00:56:40;99760.16;;;10.44;100.00
71764;BME280;59602;52.142;5.408;2023-10-31T00:59:07;99757.06;;;10.42;100.00
71764;BME280;59602;52.142;5.408;2023-10-31T01:01:34;99763.28;;;10.43;100.00
71764;BME280;59602;52.142;5.408;2023-10-31T01:04:01;99760.56;;;10.43;100.00
71764;BME280;59602;52.142;5.408;2023-10-31T01:06:27;99766.78;;;10.43;100.00
71764;BME280;59602;52.142;5.408;2023-10-31T01:08:54;99761.72;;;10.45;100.00
71764;BME280;59602;52.142;5.408;2023-10-31T01:11:21;99772.56;;;10.45;100.00
71764;BME280;59602;52.142;5.408;2023-10-31T01:13:47;99768.66;;;10.46;100.00
71764;BME280;59602;52.142;5.408;2023-10-31T01:16:14;99776.06;;;10.46;100.00
71764;BME280;59602;52.142;5.408;2023-10-31T01:18:41;99778.38;;;10.47;100.00
71764;BME280;59602;52.142;5.408;2023-10-31T01:21:07;99780.31;;;10.47;100.00
71764;BME280;59602;52.142;5.408;2023-10-31T01:23:35;99784.19;;;10.49;100.00
71764;BME280;59602;52.142;5.408;2023-10-31T01:26:02;99784.22;;;10.46;100.00
71764;BME280;59602;52.142;5.408;2023-10-31T01:28:29;99790.81;;;10.45;100.00
71764;BME280;59602;52.142;5.408;2023-10-31T01:30:55;99788.88;;;10.45;100.00
71764;BME280;59602;52.142;5.408;2023-10-31T01:33:22;99793.53;;;10.45;100.00
71764;BME280;59602;52.142;5.408;2023-10-31T01:35:49;99803.22;;;10.46;100.00
71764;BME280;59602;52.142;5.408;2023-10-31T01:38:15;99798.56;;;10.46;100.00
71764;BME280;59602;52.142;5.408;2023-10-31T01:40:42;99796.63;;;10.47;100.00
71764;BME280;59602;52.142;5.408;2023-10-31T01:43:09;99810.16;;;10.50;100.00
71764;BME280;59602;52.142;5.408;2023-10-31T01:45:36;99809.72;;;10.55;100.00
71764;BME280;59602;52.142;5.408;2023-10-31T01:48:03;99803.50;;;10.58;100.00
71764;BME280;59602;52.142;5.408;2023-10-31T01:50:30;99810.47;;;10.59;100.00
71764;BME280;59602;52.142;5.408;2023-10-31T01:52:56;99803.88;;;10.61;100.00
71764;BME280;59602;52.142;5.408;2023-10-31T01:55:23;99803.88;;;10.61;100.00
71764;BME280;59602;52.142;5.408;2023-10-31T01:57:54;99808.50;;;10.60;100.00
71764;BME280;59602;52.142;5.408;2023-10-31T02:00:21;99805.00;;;10.63;100.00
71764;BME280;59602;52.142;5.408;2023-10-31T02:02:48;99808.88;;;10.62;100.00
71764;BME280;59602;52.142;5.408;2023-10-31T02:05:18;99808.47;;;10.64;100.00
71764;BME280;59602;52.142;5.408;2023-10-31T02:07:45;99801.47;;;10.63;100.00
71764;BME280;59602;52.142;5.408;2023-10-31T02:10:12;99797.22;;;10.65;100.00
71764;BME280;59602;52.142;5.408;2023-10-31T02:12:39;99802.22;;;10.67;100.00
71764;BME280;59602;52.142;5.408;2023-10-31T02:15:07;99808.03;;;10.69;100.00
71764;BME280;59602;52.142;5.408;2023-10-31T02:17:34;99800.63;;;10.69;100.00
71764;BME280;59602;52.142;5.408;2023-10-31T02:20:01;99807.25;;;10.72;100.00
71764;BME280;59602;52.142;5.408;2023-10-31T02:22:28;99808.38;;;10.74;100.00
71764;BME280;59602;52.142;5.408;2023-10-31T02:24:54;99806.78;;;10.77;100.00
71764;BME280;59602;52.142;5.408;2023-10-31T02:27:21;99802.50;;;10.76;100.00
71764;BME280;59602;52.142;5.408;2023-10-31T02:29:48;99805.66;;;10.74;100.00
71764;BME280;59602;52.142;5.408;2023-10-31T02:32:14;99804.88;;;10.74;100.00
71764;BME280;59602;52.142;5.408;2023-10-31T02:34:41;99806.81;;;10.73;100.00
71764;BME280;59602;52.142;5.408;2023-10-31T02:37:08;99808.00;;;10.72;100.00
71764;BME280;59602;52.142;5.408;2023-10-31T02:39:35;99806.88;;;10.70;100.00
71764;BME280;59602;52.142;5.408;2023-10-31T02:42:01;99809.22;;;10.68;100.00
71764;BME280;59602;52.142;5.408;2023-10-31T02:44:30;99813.88;;;10.67;100.00
71764;BME280;59602;52.142;5.408;2023-10-31T02:46:56;99824.78;;;10.67;100.00
71764;BME280;59602;52.142;5.408;2023-10-31T02:49:23;99815.06;;;10.66;100.00
71764;BME280;59602;52.142;5.408;2023-10-31T02:51:50;99821.25;;;10.67;100.00
71764;BME280;59602;52.142;5.408;2023-10-31T02:54:16;99818.16;;;10.65;100.00
71764;BME280;59602;52.142;5.408;2023-10-31T02:56:43;99823.59;;;10.65;100.00
71764;BME280;59602;52.142;5.408;2023-10-31T02:59:10;99827.13;;;10.65;100.00
71764;BME280;59602;52.142;5.408;2023-10-31T03:01:38;99834.91;;;10.63;100.00
71764;BME280;59602;52.142;5.408;2023-10-31T03:04:05;99839.53;;;10.63;100.00
71764;BME280;59602;52.142;5.408;2023-10-31T03:06:32;99838.38;;;10.64;100.00
71764;BME280;59602;52.142;5.408;2023-10-31T03:08:58;99835.69;;;10.60;100.00
71764;BME280;59602;52.142;5.408;2023-10-31T03:11:26;99841.13;;;10.60;100.00
71764;BME280;59602;52.142;5.408;2023-10-31T03:13:53;99838.41;;;10.60;100.00
71764;BME280;59602;52.142;5.408;2023-10-31T03:16:20;99844.63;;;10.61;100.00
71764;BME280;59602;52.142;5.408;2023-10-31T03:18:48;99854.72;;;10.60;100.00
71764;BME280;59602;52.142;5.408;2023-10-31T03:21:15;99857.84;;;10.58;100.00
71764;BME280;59602;52.142;5.408;2023-10-31T03:23:43;99862.09;;;10.59;100.00
71764;BME280;59602;52.142;5.408;2023-10-31T03:26:12;99862.88;;;10.60;100.00
71764;BME280;59602;52.142;5.408;2023-10-31T03:28:39;99868.72;;;10.58;100.00
71764;BME280;59602;52.142;5.408;2023-10-31T03:31:06;99879.19;;;10.60;100.00
71764;BME280;59602;52.142;5.408;2023-10-31T03:33:32;99878.78;;;10.62;100.00
71764;BME280;59602;52.142;5.408;2023-10-31T03:35:59;99887.72;;;10.62;100.00
71764;BME280;59602;52.142;5.408;2023-10-31T03:38:26;99890.81;;;10.64;100.00
71764;BME280;59602;52.142;5.408;2023-10-31T03:40:52;99891.56;;;10.65;100.00
71764;BME280;59602;52.142;5.408;2023-10-31T03:43:19;99900.13;;;10.63;100.00
71764;BME280;59602;52.142;5.408;2023-10-31T03:45:46;99897.44;;;10.63;100.00
71764;BME280;59602;52.142;5.408;2023-10-31T03:48:15;99904.03;;;10.62;100.00
71764;BME280;59602;52.142;5.408;2023-10-31T03:50:42;99913.38;;;10.61;100.00
71764;BME280;59602;52.142;5.408;2023-10-31T03:53:09;99919.56;;;10.62;100.00
71764;BME280;59602;52.142;5.408;2023-10-31T03:55:35;99918.81;;;10.61;100.00
71764;BME280;59602;52.142;5.408;2023-10-31T03:58:02;99921.47;;;10.65;100.00
71764;BME280;59602;52.142;5.408;2023-10-31T04:00:30;99925.38;;;10.64;100.00
71764;BME280;59602;52.142;5.408;2023-10-31T04:02:56;99926.97;;;10.61;100.00
71764;BME280;59602;52.142;5.408;2023-10-31T04:05:23;99930.44;;;10.62;100.00
71764;BME280;59602;52.142;5.408;2023-10-31T04:07:50;99937.06;;;10.61;100.00
71764;BME280;59602;52.142;5.408;2023-10-31T04:10:18;99935.09;;;10.61;100.00
71764;BME280;59602;52.142;5.408;2023-10-31T04:12:45;99937.44;;;10.59;100.00
71764;BME280;59602;52.142;5.408;2023-10-31T04:15:12;99935.91;;;10.58;100.00
71764;BME280;59602;52.142;5.408;2023-10-31T04:17:38;99945.22;;;10.57;100.00
71764;BME280;59602;52.142;5.408;2023-10-31T04:20:06;99947.19;;;10.56;100.00
71764;BME280;59602;52.142;5.408;2023-10-31T04:22:32;99949.91;;;10.56;100.00
71764;BME280;59602;52.142;5.408;2023-10-31T04:24:59;99945.25;;;10.53;100.00
71764;BME280;59602;52.142;5.408;2023-10-31T04:27:26;99956.53;;;10.52;100.00
71764;BME280;59602;52.142;5.408;2023-10-31T04:29:53;99953.03;;;10.51;100.00
71764;BME280;59602;52.142;5.408;2023-10-31T04:32:20;99950.69;;;10.53;100.00
71764;BME280;59602;52.142;5.408;2023-10-31T04:34:46;99955.34;;;10.53;100.00
71764;BME280;59602;52.142;5.408;2023-10-31T04:37:13;99956.13;;;10.53;100.00
71764;BME280;59602;52.142;5.408;2023-10-31T04:39:40;99957.25;;;10.56;100.00
71764;BME280;59602;52.142;5.408;2023-10-31T04:42:06;99958.81;;;10.57;100.00
71764;BME280;59602;52.142;5.408;2023-10-31T04:44:33;99960.78;;;10.56;100.00
71764;BME280;59602;52.142;5.408;2023-10-31T04:46:59;99959.22;;;10.55;100.00
71764;BME280;59602;52.142;5.408;2023-10-31T04:49:27;99963.50;;;10.56;100.00
71764;BME280;59602;52.142;5.408;2023-10-31T04:51:53;99962.31;;;10.57;100.00
71764;BME280;59602;52.142;5.408;2023-10-31T04:54:20;99961.16;;;10.58;100.00
71764;BME280;59602;52.142;5.408;2023-10-31T04:56:47;99968.13;;;10.59;100.00
71764;BME280;59602;52.142;5.408;2023-10-31T04:59:14;99964.25;;;10.57;100.00
71764;BME280;59602;52.142;5.408;2023-10-31T05:01:48;99964.63;;;10.59;100.00
71764;BME280;59602;52.142;5.408;2023-10-31T05:04:15;99967.34;;;10.59;100.00
71764;BME280;59602;52.142;5.408;2023-10-31T05:06:42;99965.03;;;10.57;100.00
71764;BME280;59602;52.142;5.408;2023-10-31T05:09:09;99970.06;;;10.59;100.00
71764;BME280;59602;52.142;5.408;2023-10-31T05:11:37;99968.13;;;10.59;100.00
71764;BME280;59602;52.142;5.408;2023-10-31T05:14:04;99982.91;;;10.58;100.00
71764;BME280;59602;52.142;5.408;2023-10-31T05:16:31;99975.53;;;10.55;100.00
71764;BME280;59602;52.142;5.408;2023-10-31T05:18:57;99987.16;;;10.56;100.00
71764;BME280;59602;52.142;5.408;2023-10-31T05:21:26;99989.53;;;10.54;100.00
71764;BME280;59602;52.142;5.408;2023-10-31T05:23:53;99991.47;;;10.53;100.00
71764;BME280;59602;52.142;5.408;2023-10-31T05:26:19;99980.97;;;10.55;100.00
71764;BME280;59602;52.142;5.408;2023-10-31T05:28:46;99992.59;;;10.56;100.00
71764;BME280;59602;52.142;5.408;2023-10-31T05:31:15;100001.94;;;10.55;100.00
71764;BME280;59602;52.142;5.408;2023-10-31T05:33:41;99998.84;;;10.53;100.00
71764;BME280;59602;52.142;5.408;2023-10-31T05:36:24;99996.94;;;10.50;100.00
71764;BME280;59602;52.142;5.408;2023-10-31T05:38:50;100005.16;;;10.43;100.00
71764;BME280;59602;52.142;5.408;2023-10-31T05:41:17;100014.06;;;10.43;100.00
71764;BME280;59602;52.142;5.408;2023-10-31T05:43:44;100012.13;;;10.44;100.00
71764;BME280;59602;52.142;5.408;2023-10-31T05:46:11;100016.75;;;10.47;100.00
71764;BME280;59602;52.142;5.408;2023-10-31T05:48:44;100019.88;;;10.45;100.00
71764;BME280;59602;52.142;5.408;2023-10-31T05:51:14;100029.59;;;10.43;100.00
71764;BME280;59602;52.142;5.408;2023-10-31T05:53:44;100019.13;;;10.41;100.00
71764;BME280;59602;52.142;5.408;2023-10-31T05:56:12;100019.13;;;10.41;100.00
71764;BME280;59602;52.142;5.408;2023-10-31T05:58:40;100024.19;;;10.39;100.00
71764;BME280;59602;52.142;5.408;2023-10-31T06:01:08;100030.00;;;10.37;100.00
71764;BME280;59602;52.142;5.408;2023-10-31T06:03:34;100025.00;;;10.36;100.00
71764;BME280;59602;52.142;5.408;2023-10-31T06:06:01;100030.44;;;10.36;100.00
71764;BME280;59602;52.142;5.408;2023-10-31T06:08:28;100031.97;;;10.33;100.00
71764;BME280;59602;52.142;5.408;2023-10-31T06:10:56;100037.41;;;10.33;100.00
71764;BME280;59602;52.142;5.408;2023-10-31T06:13:23;100036.63;;;10.33;100.00
71764;BME280;59602;52.142;5.408;2023-10-31T06:15:54;100039.34;;;10.33;100.00
71764;BME280;59602;52.142;5.408;2023-10-31T06:18:27;100043.22;;;10.35;100.00
71764;BME280;59602;52.142;5.408;2023-10-31T06:20:53;100046.34;;;10.34;100.00
71764;BME280;59602;52.142;5.408;2023-10-31T06:23:20;100044.78;;;10.33;100.00
71764;BME280;59602;52.142;5.408;2023-10-31T06:25:47;100046.75;;;10.32;100.00
71764;BME280;59602;52.142;5.408;2023-10-31T06:28:14;100054.50;;;10.34;100.00
71764;BME280;59602;52.142;5.408;2023-10-31T06:30:40;100050.22;;;10.33;100.00
71764;BME280;59602;52.142;5.408;2023-10-31T06:33:07;100045.97;;;10.32;100.00
71764;BME280;59602;52.142;5.408;2023-10-31T06:35:35;100059.94;;;10.30;100.00
71764;BME280;59602;52.142;5.408;2023-10-31T06:38:01;100059.94;;;10.30;100.00
71764;BME280;59602;52.142;5.408;2023-10-31T06:40:28;100053.75;;;10.30;100.00
71764;BME280;59602;52.142;5.408;2023-10-31T06:42:55;100061.91;;;10.30;100.00
71764;BME280;59602;52.142;5.408;2023-10-31T06:45:21;100058.41;;;10.29;100.00
71764;BME280;59602;52.142;5.408;2023-10-31T06:47:48;100066.91;;;10.31;100.00
71764;BME280;59602;52.142;5.408;2023-10-31T06:50:15;100073.16;;;10.32;100.00
71764;BME280;59602;52.142;5.408;2023-10-31T06:52:45;100079.72;;;10.31;100.00
71764;BME280;59602;52.142;5.408;2023-10-31T06:55:12;100081.69;;;10.30;100.00
71764;BME280;59602;52.142;5.408;2023-10-31T06:57:39;100080.16;;;10.29;100.00
71764;BME280;59602;52.142;5.408;2023-10-31T07:00:06;100079.72;;;10.27;100.00
71764;BME280;59602;52.142;5.408;2023-10-31T07:02:35;100087.09;;;10.27;100.00
71764;BME280;59602;52.142;5.408;2023-10-31T07:05:02;100076.63;;;10.29;100.00
71764;BME280;59602;52.142;5.408;2023-10-31T07:07:30;100080.16;;;10.29;100.00
71764;BME280;59602;52.142;5.408;2023-10-31T07:09:56;100088.28;;;10.29;100.00
71764;BME280;59602;52.142;5.408;2023-10-31T07:12:24;100086.34;;;10.30;100.00
71764;BME280;59602;52.142;5.408;2023-10-31T07:14:51;100099.53;;;10.28;100.00
71764;BME280;59602;52.142;5.408;2023-10-31T07:17:17;100104.59;;;10.29;100.00
71764;BME280;59602;52.142;5.408;2023-10-31T07:19:44;100110.38;;;10.28;100.00
71764;BME280;59602;52.142;5.408;2023-10-31T07:22:11;100109.63;;;10.31;100.00
71764;BME280;59602;52.142;5.408;2023-10-31T07:24:37;100111.16;;;10.35;100.00
71764;BME280;59602;52.142;5.408;2023-10-31T07:27:04;100116.19;;;10.37;100.00
71764;BME280;59602;52.142;5.408;2023-10-31T07:29:30;100110.75;;;10.41;100.00
71764;BME280;59602;52.142;5.408;2023-10-31T07:31:57;100115.00;;;10.42;100.00
71764;BME280;59602;52.142;5.408;2023-10-31T07:34:24;100123.94;;;10.42;100.00
71764;BME280;59602;52.142;5.408;2023-10-31T07:36:51;100126.25;;;10.44;100.00
71764;BME280;59602;52.142;5.408;2023-10-31T07:39:17;100131.69;;;10.44;100.00
71764;BME280;59602;52.142;5.408;2023-10-31T07:41:44;100128.22;;;10.43;100.00
71764;BME280;59602;52.142;5.408;2023-10-31T07:44:11;100127.03;;;10.44;100.00
71764;BME280;59602;52.142;5.408;2023-10-31T07:46:38;100133.22;;;10.45;100.00
71764;BME280;59602;52.142;5.408;2023-10-31T07:49:04;100132.06;;;10.46;100.00
71764;BME280;59602;52.142;5.408;2023-10-31T07:51:31;100135.94;;;10.45;100.00
71764;BME280;59602;52.142;5.408;2023-10-31T07:53:58;100135.56;;;10.46;100.00
71764;BME280;59602;52.142;5.408;2023-10-31T07:56:25;100148.38;;;10.49;100.00
71764;BME280;59602;52.142;5.408;2023-10-31T07:58:52;100146.81;;;10.52;100.00
71764;BME280;59602;52.142;5.408;2023-10-31T08:01:19;100147.97;;;10.54;100.00
71764;BME280;59602;52.142;5.408;2023-10-31T08:03:46;100141.34;;;10.55;100.00
71764;BME280;59602;52.142;5.408;2023-10-31T08:06:59;100146.78;;;10.55;100.00
71764;BME280;59602;52.142;5.408;2023-10-31T08:09:09;100155.69;;;10.56;100.00
71764;BME280;59602;52.142;5.408;2023-10-31T08:11:55;100154.94;;;10.55;100.00
71764;BME280;59602;52.142;5.408;2023-10-31T08:14:21;100159.22;;;10.56;100.00
71764;BME280;59602;52.142;5.408;2023-10-31T08:16:51;100156.88;;;10.55;100.00
71764;BME280;59602;52.142;5.408;2023-10-31T08:19:18;100159.97;;;10.57;100.00
71764;BME280;59602;52.142;5.408;2023-10-31T08:21:44;100158.41;;;10.59;100.00
71764;BME280;59602;52.142;5.408;2023-10-31T08:24:11;100156.84;;;10.62;100.00
71764;BME280;59602;52.142;5.408;2023-10-31T08:26:39;100158.78;;;10.65;100.00
71764;BME280;59602;52.142;5.408;2023-10-31T08:29:06;100161.09;;;10.67;100.00
71764;BME280;59602;52.142;5.408;2023-10-31T08:31:33;100164.94;;;10.69;100.00
71764;BME280;59602;52.142;5.408;2023-10-31T08:33:59;100168.84;;;10.72;100.00
71764;BME280;59602;52.142;5.408;2023-10-31T08:36:26;100163.78;;;10.74;100.00
71764;BME280;59602;52.142;5.408;2023-10-31T08:38:53;100172.28;;;10.76;100.00
71764;BME280;59602;52.142;5.408;2023-10-31T08:41:21;100171.09;;;10.80;100.00
71764;BME280;59602;52.142;5.408;2023-10-31T08:43:49;100178.88;;;10.86;100.00
71764;BME280;59602;52.142;5.408;2023-10-31T08:46:15;100172.22;;;10.90;100.00
71764;BME280;59602;52.142;5.408;2023-10-31T08:48:42;100186.59;;;10.94;100.00
71764;BME280;59602;52.142;5.408;2023-10-31T08:51:08;100183.81;;;10.98;100.00
71764;BME280;59602;52.142;5.408;2023-10-31T08:53:35;100179.53;;;11.04;100.00
71764;BME280;59602;52.142;5.408;2023-10-31T08:56:02;100181.03;;;11.09;100.00
71764;BME280;59602;52.142;5.408;2023-10-31T08:58:39;100186.50;;;11.09;100.00
71764;BME280;59602;52.142;5.408;2023-10-31T09:01:10;100193.84;;;11.12;100.00
71764;BME280;59602;52.142;5.408;2023-10-31T09:03:36;100202.38;;;11.14;100.00
71764;BME280;59602;52.142;5.408;2023-10-31T09:06:03;100212.88;;;11.12;100.00
71764;BME280;59602;52.142;5.408;2023-10-31T09:08:30;100214.06;;;11.11;100.00
71764;BME280;59602;52.142;5.408;2023-10-31T09:10:58;100215.97;;;11.14;100.00
71764;BME280;59602;52.142;5.408;2023-10-31T09:13:24;100225.66;;;11.18;100.00
71764;BME280;59602;52.142;5.408;2023-10-31T09:15:51;100226.06;;;11.20;100.00
71764;BME280;59602;52.142;5.408;2023-10-31T09:18:18;100224.50;;;11.23;100.00
71764;BME280;59602;52.142;5.408;2023-10-31T09:20:45;100230.66;;;11.27;100.00
71764;BME280;59602;52.142;5.408;2023-10-31T09:23:12;100232.63;;;11.30;100.00
71764;BME280;59602;52.142;5.408;2023-10-31T09:25:39;100230.66;;;11.34;100.00
71764;BME280;59602;52.142;5.408;2023-10-31T09:28:06;100233.31;;;11.38;100.00
71764;BME280;59602;52.142;5.408;2023-10-31T09:30:32;100236.03;;;11.41;100.00
71764;BME280;59602;52.142;5.408;2023-10-31T09:32:59;100237.56;;;11.46;100.00
71764;BME280;59602;52.142;5.408;2023-10-31T09:35:26;100243.75;;;11.50;100.00
71764;BME280;59602;52.142;5.408;2023-10-31T09:37:55;100240.59;;;11.55;100.00
71764;BME280;59602;52.142;5.408;2023-10-31T09:40:22;100242.50;;;11.62;100.00
71764;BME280;59602;52.142;5.408;2023-10-31T09:42:54;100243.63;;;11.68;100.00
71764;BME280;59602;52.142;5.408;2023-10-31T09:45:21;100250.53;;;11.76;100.00
71764;BME280;59602;52.142;5.408;2023-10-31T09:47:50;100253.22;;;11.83;100.00
71764;BME280;59602;52.142;5.408;2023-10-31T09:50:17;100249.69;;;11.83;100.00
71764;BME280;59602;52.142;5.408;2023-10-31T09:52:44;100250.13;;;11.81;100.00
71764;BME280;59602;52.142;5.408;2023-10-31T09:55:12;100261.78;;;11.82;100.00
71764;BME280;59602;52.142;5.408;2023-10-31T09:57:38;100266.84;;;11.83;100.00
71764;BME280;59602;52.142;5.408;2023-10-31T10:00:09;100263.31;;;11.90;100.00
71764;BME280;59602;52.142;5.408;2023-10-31T10:02:37;100277.66;;;11.94;100.00
71764;BME280;59602;52.142;5.408;2023-10-31T10:05:04;100278.38;;;12.02;100.00
71764;BME280;59602;52.142;5.408;2023-10-31T10:07:55;100285.31;;;12.10;100.00
71764;BME280;59602;52.142;5.408;2023-10-31T10:10:27;100281.38;;;12.15;100.00
71764;BME280;59602;52.142;5.408;2023-10-31T10:13:10;100284.81;;;12.22;100.00
71764;BME280;59602;52.142;5.408;2023-10-31T10:15:50;100287.84;;;12.32;100.00
71764;BME280;59602;52.142;5.408;2023-10-31T10:18:32;100291.22;;;12.43;100.00
71764;BME280;59602;52.142;5.408;2023-10-31T10:21:02;100293.16;;;12.46;100.00
71764;BME280;59602;52.142;5.408;2023-10-31T10:23:29;100296.66;;;12.46;100.00
71764;BME280;59602;52.142;5.408;2023-10-31T10:26:02;100308.34;;;12.43;100.00
71764;BME280;59602;52.142;5.408;2023-10-31T10:28:29;100309.16;;;12.40;100.00
71764;BME280;59602;52.142;5.408;2023-10-31T10:30:59;100301.81;;;12.37;100.00
71764;BME280;59602;52.142;5.408;2023-10-31T10:33:28;100301.00;;;12.37;100.00
71764;BME280;59602;52.142;5.408;2023-10-31T10:36:15;100304.09;;;12.42;100.00
71764;BME280;59602;52.142;5.408;2023-10-31T10:38:56;100304.06;;;12.46;100.00
71764;BME280;59602;52.142;5.408;2023-10-31T10:41:26;100304.38;;;12.52;100.00
71764;BME280;59602;52.142;5.408;2023-10-31T10:43:56;100296.56;;;12.54;100.00
71764;BME280;59602;52.142;5.408;2023-10-31T10:46:25;100303.53;;;12.58;100.00
71764;BME280;59602;52.142;5.408;2023-10-31T10:48:55;100307.38;;;12.64;100.00
71764;BME280;59602;52.142;5.408;2023-10-31T10:51:52;100310.09;;;12.64;100.00
71764;BME280;59602;52.142;5.408;2023-10-31T10:54:50;100316.78;;;12.60;100.00
71764;BME280;59602;52.142;5.408;2023-10-31T11:00:04;100316.06;;;12.52;100.00
71764;BME280;59602;52.142;5.408;2023-10-31T11:02:58;100309.84;;;12.52;100.00
71764;BME280;59602;52.142;5.408;2023-10-31T11:05:28;100310.56;;;12.56;100.00
71764;BME280;59602;52.142;5.408;2023-10-31T11:07:57;100308.59;;;12.60;100.00
71764;BME280;59602;52.142;5.408;2023-10-31T14:23:57;100451.19;;;12.57;100.00
71764;BME280;59602;52.142;5.408;2023-10-31T14:27:04;100450.78;;;12.62;100.00
71764;BME280;59602;52.142;5.408;2023-10-31T14:30:14;100453.13;;;12.60;100.00
71764;BME280;59602;52.142;5.408;2023-10-31T14:33:23;100450.00;;;12.61;100.00
71764;BME280;59602;52.142;5.408;2023-10-31T14:36:09;100451.94;;;12.61;100.00
71764;BME280;59602;52.142;5.408;2023-10-31T14:38:39;100450.38;;;12.63;100.00
71764;BME280;59602;52.142;5.408;2023-10-31T14:41:13;100455.81;;;12.63;100.00
71764;BME280;59602;52.142;5.408;2023-10-31T14:43:45;100451.94;;;12.64;100.00
71764;BME280;59602;52.142;5.408;2023-10-31T14:46:29;100461.69;;;12.62;100.00
71764;BME280;59602;52.142;5.408;2023-10-31T14:49:06;100460.56;;;12.56;100.00
71764;BME280;59602;52.142;5.408;2023-10-31T14:51:34;100465.25;;;12.55;100.00
71764;BME280;59602;52.142;5.408;2023-10-31T14:54:01;100473.84;;;12.54;100.00
71764;BME280;59602;52.142;5.408;2023-10-31T14:56:34;100476.63;;;12.46;100.00
71764;BME280;59602;52.142;5.408;2023-10-31T14:59:05;100472.78;;;12.37;100.00
71764;BME280;59602;52.142;5.408;2023-10-31T15:01:32;100469.72;;;12.31;100.00
71764;BME280;59602;52.142;5.408;2023-10-31T15:03:59;100475.97;;;12.28;100.00
71764;BME280;59602;52.142;5.408;2023-10-31T15:06:26;100472.06;;;12.29;100.00
71764;BME280;59602;52.142;5.408;2023-10-31T15:08:53;100480.25;;;12.25;100.00
71764;BME280;59602;52.142;5.408;2023-10-31T15:11:20;100478.34;;;12.22;100.00
71764;BME280;59602;52.142;5.408;2023-10-31T15:13:46;100479.91;;;12.20;100.00
71764;BME280;59602;52.142;5.408;2023-10-31T15:16:13;100485.41;;;12.13;100.00
71764;BME280;59602;52.142;5.408;2023-10-31T15:18:40;100480.34;;;12.15;100.00
71764;BME280;59602;52.142;5.408;2023-10-31T15:21:12;100483.44;;;12.17;100.00
71764;BME280;59602;52.142;5.408;2023-10-31T15:23:39;100488.91;;;12.17;100.00
71764;BME280;59602;52.142;5.408;2023-10-31T15:26:05;100480.34;;;12.15;100.00
71764;BME280;59602;52.142;5.408;2023-10-31T15:28:35;100485.00;;;12.14;100.00
71764;BME280;59602;52.142;5.408;2023-10-31T15:31:02;100479.16;;;12.12;100.00
71764;BME280;59602;52.142;5.408;2023-10-31T15:33:29;100488.53;;;12.11;100.00
71764;BME280;59602;52.142;5.408;2023-10-31T15:35:57;100487.38;;;12.05;100.00
71764;BME280;59602;52.142;5.408;2023-10-31T15:38:24;100494.41;;;12.02;100.00
71764;BME280;59602;52.142;5.408;2023-10-31T15:40:55;100499.91;;;11.99;100.00
71764;BME280;59602;52.142;5.408;2023-10-31T15:43:36;100498.72;;;11.96;100.00
71764;BME280;59602;52.142;5.408;2023-10-31T15:46:03;100511.56;;;11.96;100.00
71764;BME280;59602;52.142;5.408;2023-10-31T15:48:32;100510.81;;;11.95;100.00
71764;BME280;59602;52.142;5.408;2023-10-31T15:51:00;100511.19;;;11.94;100.00
71764;BME280;59602;52.142;5.408;2023-10-31T15:53:28;100515.47;;;11.95;100.00
71764;BME280;59602;52.142;5.408;2023-10-31T15:55:55;100513.16;;;11.93;100.00
71764;BME280;59602;52.142;5.408;2023-10-31T15:58:21;100506.94;;;11.93;100.00
71764;BME280;59602;52.142;5.408;2023-10-31T16:00:48;100511.19;;;11.94;100.00
71764;BME280;59602;52.142;5.408;2023-10-31T16:03:15;100516.25;;;11.92;100.00
71764;BME280;59602;52.142;5.408;2023-10-31T16:05:43;100516.69;;;11.90;100.00
71764;BME280;59602;52.142;5.408;2023-10-31T16:08:10;100510.06;;;11.84;100.00